createdAt,value
2023-03-21T00:01:31.868Z,6.70
2023-03-21T00:04:13.780Z,6.70
2023-03-21T00:07:04.644Z,6.71
2023-03-21T00:09:38.445Z,6.72
2023-03-21T00:12:11.728Z,6.73
2023-03-21T00:14:43.499Z,6.73
2023-03-21T00:17:25.623Z,6.74
2023-03-21T00:19:57.519Z,6.75
2023-03-21T00:22:48.253Z,6.76
2023-03-21T00:25:19.294Z,6.76
2023-03-21T00:28:07.161Z,6.76
2023-03-21T00:30:41.332Z,6.75
2023-03-21T00:33:22.251Z,6.75
2023-03-21T00:36:05.256Z,6.76
2023-03-21T00:38:38.196Z,6.76
2023-03-21T00:41:26.335Z,6.76
2023-03-21T00:44:15.671Z,6.76
2023-03-21T00:47:07.522Z,6.76
2023-03-21T00:49:38.728Z,6.76
2023-03-21T00:52:22.175Z,6.76
2023-03-21T00:55:01.596Z,6.76
2023-03-21T00:58:01.218Z,6.77
2023-03-21T01:00:52.853Z,6.77
2023-03-21T01:03:29.021Z,6.78
2023-03-21T01:06:05.654Z,6.78
2023-03-21T01:08:54.782Z,6.77
2023-03-21T01:11:29.537Z,6.77
2023-03-21T01:14:14.714Z,6.77
2023-03-21T01:16:50.322Z,6.77
2023-03-21T01:19:37.921Z,6.77
2023-03-21T01:22:31.970Z,6.78
2023-03-21T01:25:12.371Z,6.78
2023-03-21T01:27:55.903Z,6.77
2023-03-21T01:30:42.000Z,6.77
2023-03-21T01:33:12.819Z,6.76
2023-03-21T01:35:53.339Z,6.76
2023-03-21T01:38:31.195Z,6.75
2023-03-21T01:41:17.097Z,6.74
2023-03-21T01:43:53.305Z,6.73
2023-03-21T01:46:49.608Z,6.72
2023-03-21T01:49:46.732Z,6.71
2023-03-21T01:52:42.006Z,6.70
2023-03-21T01:55:40.114Z,6.70
2023-03-21T01:58:34.237Z,6.70
2023-03-21T02:01:10.705Z,6.69
2023-03-21T02:03:52.051Z,6.68
2023-03-21T02:06:47.883Z,6.66
2023-03-21T02:09:31.854Z,6.65
2023-03-21T02:12:03.090Z,6.64
2023-03-21T02:14:37.522Z,6.62
2023-03-21T02:17:27.172Z,6.61
2023-03-21T02:20:30.044Z,6.60
2023-03-21T02:23:34.710Z,6.59
2023-03-21T02:26:41.877Z,6.58
2023-03-21T02:29:24.584Z,6.59
2023-03-21T02:32:18.197Z,6.59
2023-03-21T02:35:17.100Z,6.58
2023-03-21T02:38:00.553Z,6.58
2023-03-21T02:40:38.222Z,6.58
2023-03-21T02:43:37.420Z,6.58
2023-03-21T02:46:42.950Z,6.58
2023-03-21T02:49:23.535Z,6.58
2023-03-21T02:52:13.594Z,6.59
2023-03-21T02:54:51.586Z,6.60
2023-03-21T02:57:40.120Z,6.61
2023-03-21T03:00:37.181Z,6.61
2023-03-21T03:03:18.010Z,6.61
2023-03-21T03:06:20.846Z,6.62
2023-03-21T03:09:21.325Z,6.62
2023-03-21T03:11:57.770Z,6.62
2023-03-21T03:15:03.208Z,6.61
2023-03-21T03:17:49.947Z,6.60
2023-03-21T03:20:34.082Z,6.57
2023-03-21T03:23:19.143Z,6.54
2023-03-21T03:25:57.697Z,6.49
2023-03-21T03:28:40.293Z,6.45
2023-03-21T03:31:26.041Z,6.40
2023-03-21T03:34:07.125Z,6.36
2023-03-21T03:36:56.452Z,6.33
2023-03-21T03:39:53.130Z,6.31
2023-03-21T03:42:29.925Z,6.30
2023-03-21T03:45:06.982Z,6.29
2023-03-21T03:47:56.052Z,6.28
2023-03-21T03:50:41.389Z,6.29
2023-03-21T03:53:22.298Z,6.30
2023-03-21T03:55:57.371Z,6.30
2023-03-21T03:58:48.199Z,6.32
2023-03-21T04:01:23.323Z,6.32
2023-03-21T04:04:03.729Z,6.33
2023-03-21T04:07:03.539Z,6.34
2023-03-21T04:09:44.043Z,6.34
2023-03-21T04:12:20.760Z,6.34
2023-03-21T04:15:19.141Z,6.35
2023-03-21T04:18:03.158Z,6.36
2023-03-21T04:20:43.350Z,6.37
2023-03-21T04:23:14.490Z,6.39
2023-03-21T04:25:59.282Z,6.40
2023-03-21T04:28:37.339Z,6.40
2023-03-21T04:31:31.094Z,6.40
2023-03-21T04:34:10.141Z,6.40
2023-03-21T04:36:45.913Z,6.40
2023-03-21T04:39:19.100Z,6.41
2023-03-21T04:41:51.494Z,6.41
2023-03-21T04:44:42.738Z,6.41
2023-03-21T04:47:17.000Z,6.41
2023-03-21T04:49:49.051Z,6.41
2023-03-21T04:52:20.199Z,6.41
2023-03-21T04:55:05.057Z,6.40
2023-03-21T04:57:39.399Z,6.38
2023-03-21T05:00:15.126Z,6.34
2023-03-21T05:02:46.212Z,6.30
2023-03-21T05:05:16.855Z,6.26
2023-03-21T05:07:48.733Z,6.22
2023-03-21T05:10:29.395Z,6.19
2023-03-21T05:13:20.886Z,6.17
2023-03-21T05:15:52.573Z,6.16
2023-03-21T05:18:38.891Z,6.14
2023-03-21T05:21:18.193Z,6.11
2023-03-21T05:24:14.068Z,6.09
2023-03-21T05:26:50.331Z,6.08
2023-03-21T05:29:41.338Z,6.08
2023-03-21T05:32:32.489Z,6.07
2023-03-21T05:35:24.849Z,6.08
2023-03-21T05:38:01.014Z,6.08
2023-03-21T05:40:50.946Z,6.08
2023-03-21T05:43:21.815Z,6.08
2023-03-21T05:46:12.956Z,6.08
2023-03-21T05:48:53.119Z,6.09
2023-03-21T05:51:36.387Z,6.10
2023-03-21T05:54:09.415Z,6.11
2023-03-21T05:56:40.699Z,6.12
2023-03-21T05:59:31.493Z,6.14
2023-03-21T06:02:02.374Z,6.16
2023-03-21T06:04:35.472Z,6.17
2023-03-21T06:07:06.705Z,6.16
2023-03-21T06:09:42.033Z,6.15
2023-03-21T06:12:21.650Z,6.15
2023-03-21T06:15:09.918Z,6.15
2023-03-21T06:18:03.467Z,6.14
2023-03-21T06:20:34.203Z,6.13
2023-03-21T06:23:10.701Z,6.15
2023-03-21T06:25:55.077Z,6.16
2023-03-21T06:28:39.128Z,6.21
2023-03-21T06:31:12.408Z,6.27
2023-03-21T06:33:59.806Z,6.39
2023-03-21T06:36:44.642Z,6.51
2023-03-21T06:39:16.980Z,6.65
2023-03-21T06:41:58.796Z,6.83
2023-03-21T06:44:42.203Z,7.02
2023-03-21T06:47:17.508Z,7.26
2023-03-21T06:50:11.812Z,7.50
2023-03-21T06:52:48.173Z,7.68
2023-03-21T06:55:28.805Z,7.83
2023-03-21T06:58:10.618Z,7.99
2023-03-21T07:00:52.921Z,8.15
2023-03-21T07:03:24.698Z,8.28
2023-03-21T07:06:14.761Z,8.41
2023-03-21T07:08:48.075Z,8.52
2023-03-21T07:11:19.516Z,8.64
2023-03-21T07:14:04.424Z,8.79
2023-03-21T07:16:37.792Z,8.94
2023-03-21T07:19:25.314Z,9.10
2023-03-21T07:22:04.963Z,9.29
2023-03-21T07:25:04.094Z,9.54
2023-03-21T07:27:40.312Z,9.77
2023-03-21T07:30:16.574Z,9.97
2023-03-21T07:33:08.221Z,10.23
2023-03-21T07:35:43.175Z,10.60
2023-03-21T07:38:25.452Z,10.85
2023-03-21T07:41:04.586Z,11.12
2023-03-21T07:43:39.248Z,11.35
2023-03-21T07:46:13.643Z,11.53
2023-03-21T07:48:46.586Z,11.62
2023-03-21T07:51:17.847Z,11.67
2023-03-21T07:54:08.976Z,11.68
2023-03-21T07:56:39.710Z,11.70
2023-03-21T07:59:10.503Z,11.71
2023-03-21T08:01:41.439Z,11.76
2023-03-21T08:04:23.770Z,11.79
2023-03-21T08:06:57.505Z,11.78
2023-03-21T08:10:18.210Z,11.78
2023-03-21T08:12:50.592Z,11.80
2023-03-21T08:15:22.601Z,11.86
2023-03-21T08:17:56.243Z,11.93
2023-03-21T08:20:25.502Z,12.06
2023-03-21T08:22:56.383Z,12.23
2023-03-21T08:25:27.002Z,12.47
2023-03-21T08:27:57.758Z,12.67
2023-03-21T08:30:31.079Z,12.93
2023-03-21T08:33:22.877Z,13.11
2023-03-21T08:35:56.869Z,13.20
2023-03-21T08:38:33.593Z,13.24
2023-03-21T08:41:05.201Z,13.38
2023-03-21T08:43:36.090Z,13.50
2023-03-21T08:46:07.359Z,13.66
2023-03-21T08:48:52.587Z,13.78
2023-03-21T08:51:26.401Z,13.72
2023-03-21T08:53:57.733Z,13.60
2023-03-21T08:56:28.735Z,13.50
2023-03-21T08:59:04.611Z,13.40
2023-03-21T09:01:35.967Z,13.29
2023-03-21T09:04:10.880Z,13.11
2023-03-21T09:06:45.627Z,13.01
2023-03-21T09:09:19.738Z,12.97
2023-03-21T09:11:50.114Z,12.93
2023-03-21T09:14:28.764Z,12.87
2023-03-21T09:17:11.818Z,12.87
2023-03-21T09:19:41.002Z,12.84
2023-03-21T09:22:14.502Z,12.79
2023-03-21T09:24:49.291Z,12.82
2023-03-21T09:27:23.264Z,12.88
2023-03-21T09:29:58.658Z,12.98
2023-03-21T09:32:29.851Z,13.07
2023-03-21T09:35:01.340Z,13.16
2023-03-21T09:37:33.308Z,13.22
2023-03-21T09:40:09.237Z,13.24
2023-03-21T09:42:48.180Z,13.20
2023-03-21T09:45:27.201Z,13.22
2023-03-21T09:47:58.576Z,13.26
2023-03-21T09:50:35.065Z,13.21
2023-03-21T09:53:14.015Z,13.13
2023-03-21T09:55:45.663Z,13.06
2023-03-21T09:58:28.403Z,13.09
2023-03-21T10:01:10.506Z,13.10
2023-03-21T10:03:44.336Z,13.13
2023-03-21T10:06:20.385Z,13.18
2023-03-21T10:08:57.188Z,13.23
2023-03-21T10:11:41.401Z,13.26
2023-03-21T10:14:19.775Z,13.28
2023-03-21T10:16:53.582Z,13.28
2023-03-21T10:19:30.429Z,13.30
2023-03-21T10:22:04.650Z,13.35
2023-03-21T10:24:40.305Z,13.42
2023-03-21T10:27:16.054Z,13.50
2023-03-21T10:29:53.300Z,13.52
2023-03-21T10:32:24.456Z,13.55
2023-03-21T10:34:59.318Z,13.55
2023-03-21T10:37:42.678Z,13.54
2023-03-21T10:40:17.763Z,13.59
2023-03-21T10:42:48.450Z,13.65
2023-03-21T10:45:22.771Z,13.66
2023-03-21T10:47:55.807Z,13.67
2023-03-21T10:50:32.652Z,13.72
2023-03-21T10:53:04.061Z,13.78
2023-03-21T10:56:39.733Z,13.72
2023-03-21T10:59:44.361Z,13.76
2023-03-21T11:02:25.241Z,13.70
2023-03-21T11:04:58.368Z,13.63
2023-03-21T11:07:32.980Z,13.61
2023-03-21T11:10:23.022Z,13.61
2023-03-21T11:13:03.420Z,13.57
2023-03-21T11:15:48.201Z,13.48
2023-03-21T11:18:24.230Z,13.39
2023-03-21T11:20:58.187Z,13.37
2023-03-21T11:23:34.639Z,13.33
2023-03-21T11:26:10.501Z,13.29
2023-03-21T11:28:45.192Z,13.27
2023-03-21T11:31:18.119Z,13.27
2023-03-21T11:33:53.774Z,13.26
2023-03-21T11:36:39.868Z,13.25
2023-03-21T11:39:35.481Z,13.23
2023-03-21T11:42:07.573Z,13.23
2023-03-21T11:44:45.737Z,13.24
2023-03-21T11:47:32.728Z,13.22
2023-03-21T11:50:07.556Z,13.20
2023-03-21T11:52:49.312Z,13.25
2023-03-21T11:55:41.766Z,13.27
2023-03-21T11:58:30.816Z,13.22
2023-03-21T12:01:11.839Z,13.18
2023-03-21T12:04:04.597Z,13.20
2023-03-21T12:06:39.454Z,13.20
2023-03-21T12:09:28.449Z,13.17
2023-03-21T12:12:22.034Z,13.12
2023-03-21T12:15:12.146Z,13.15
2023-03-21T12:17:57.911Z,13.17
2023-03-21T12:20:48.617Z,13.20
2023-03-21T12:23:39.322Z,13.21
2023-03-21T12:26:21.177Z,13.31
2023-03-21T12:29:14.690Z,13.48
2023-03-21T12:31:59.759Z,13.68
2023-03-21T12:34:52.748Z,13.89
2023-03-21T12:37:32.156Z,14.03
2023-03-21T12:40:11.551Z,14.17
2023-03-21T12:43:03.825Z,14.32
2023-03-21T12:45:46.999Z,14.42
2023-03-21T12:48:24.709Z,14.43
2023-03-21T12:51:42.663Z,14.50
2023-03-21T12:55:04.304Z,14.70
2023-03-21T12:57:57.891Z,14.74
2023-03-21T13:01:20.255Z,14.83
2023-03-21T13:04:19.001Z,14.84
2023-03-21T13:07:14.853Z,14.83
2023-03-21T13:11:18.881Z,14.86
2023-03-21T13:14:02.158Z,14.87
2023-03-21T13:16:41.750Z,14.86
2023-03-21T13:19:25.750Z,14.81
2023-03-21T13:22:08.233Z,14.80
2023-03-21T13:24:49.935Z,14.74
2023-03-21T13:27:33.321Z,14.68
2023-03-21T13:30:21.141Z,14.64
2023-03-21T13:32:59.031Z,14.58
2023-03-21T13:35:42.791Z,14.51
2023-03-21T13:38:22.788Z,14.45
2023-03-21T13:41:07.634Z,14.43
2023-03-21T13:43:44.786Z,14.39
2023-03-21T13:46:53.973Z,14.35
2023-03-21T13:53:55.467Z,14.34
2023-03-21T14:00:21.548Z,14.31
2023-03-21T14:03:17.720Z,14.26
2023-03-21T14:05:56.992Z,14.19
2023-03-21T14:08:38.018Z,14.10
2023-03-21T14:11:23.930Z,14.00
2023-03-21T14:14:07.649Z,13.84
2023-03-21T14:19:43.498Z,13.57
2023-03-21T14:22:15.968Z,13.49
2023-03-21T14:24:59.049Z,13.40
2023-03-21T14:27:34.847Z,13.30
2023-03-21T14:30:06.907Z,13.19
2023-03-21T14:32:43.966Z,13.07
2023-03-21T14:35:17.359Z,12.92
2023-03-21T14:38:01.067Z,12.79
2023-03-21T14:40:32.056Z,12.66
2023-03-21T14:43:25.028Z,12.51
2023-03-21T14:45:57.925Z,12.40
2023-03-21T14:48:34.102Z,12.25
2023-03-21T14:51:09.471Z,12.12
2023-03-21T14:53:45.336Z,11.99
2023-03-21T14:56:23.563Z,11.89
2023-03-21T14:58:57.412Z,11.76
2023-03-21T15:01:33.291Z,11.63
2023-03-21T15:04:07.957Z,11.50
2023-03-21T15:06:56.670Z,11.37
2023-03-21T15:09:33.603Z,11.24
2023-03-21T15:12:12.692Z,11.14
2023-03-21T15:14:54.895Z,11.04
2023-03-21T15:17:29.766Z,10.95
2023-03-21T15:20:00.638Z,10.86
2023-03-21T15:22:43.613Z,10.79
2023-03-21T15:25:23.383Z,10.74
2023-03-21T15:27:55.773Z,10.70
2023-03-21T15:30:53.465Z,10.68
2023-03-21T15:33:27.251Z,10.65
2023-03-21T15:36:00.340Z,10.64
2023-03-21T15:38:35.151Z,10.63
2023-03-21T15:41:34.543Z,10.63
2023-03-21T15:44:30.884Z,10.60
2023-03-21T15:50:29.652Z,10.51
2023-03-21T15:53:07.122Z,10.48
2023-03-21T15:55:48.357Z,10.45
2023-03-21T15:58:22.217Z,10.42
2023-03-21T16:00:55.811Z,10.39
2023-03-21T16:03:37.226Z,10.39
2023-03-21T16:06:17.805Z,10.38
2023-03-21T16:08:53.034Z,10.38
2023-03-21T16:11:29.914Z,10.38
2023-03-21T16:14:00.832Z,10.39
2023-03-21T16:16:33.252Z,10.38
2023-03-21T16:19:25.076Z,10.38
2023-03-21T16:21:59.509Z,10.37
2023-03-21T16:24:28.951Z,10.36
2023-03-21T16:27:00.644Z,10.35
2023-03-21T16:29:36.566Z,10.34
2023-03-21T16:32:13.922Z,10.32
2023-03-21T16:34:47.714Z,10.31
2023-03-21T16:37:18.912Z,10.29
2023-03-21T16:40:01.590Z,10.29
2023-03-21T16:42:54.420Z,10.29
2023-03-21T16:45:27.364Z,10.29
2023-03-21T16:47:59.075Z,10.30
2023-03-21T16:50:44.293Z,10.30
2023-03-21T16:53:17.497Z,10.29
2023-03-21T16:55:48.874Z,10.28
2023-03-21T16:58:19.677Z,10.26
2023-03-21T17:01:02.315Z,10.22
2023-03-21T17:03:34.433Z,10.20
2023-03-21T17:06:06.123Z,10.18
2023-03-21T17:08:37.042Z,10.15
2023-03-21T17:11:20.268Z,10.13
2023-03-21T17:14:01.162Z,10.09
2023-03-21T17:16:43.404Z,10.06
2023-03-21T17:19:34.505Z,10.03
2023-03-21T17:22:05.319Z,10.00
2023-03-21T17:24:46.195Z,9.98
2023-03-21T17:27:27.144Z,9.97
2023-03-21T17:29:58.998Z,9.93
2023-03-21T17:32:43.818Z,9.91
2023-03-21T17:35:17.939Z,9.90
2023-03-21T17:37:51.236Z,9.87
2023-03-21T17:40:42.304Z,9.84
2023-03-21T17:43:19.008Z,9.80
2023-03-21T17:46:00.410Z,9.78
2023-03-21T17:48:34.324Z,9.76
2023-03-21T17:51:12.961Z,9.75
2023-03-21T17:53:53.255Z,9.71
2023-03-21T17:56:26.982Z,9.68
2023-03-21T17:59:02.538Z,9.66
2023-03-21T18:01:43.954Z,9.62
2023-03-21T18:04:24.998Z,9.59
2023-03-21T18:07:01.101Z,9.56
2023-03-21T18:09:33.241Z,9.52
2023-03-21T18:12:13.004Z,9.49
2023-03-21T18:14:45.698Z,9.45
2023-03-21T18:17:28.047Z,9.43
2023-03-21T18:20:13.301Z,9.40
2023-03-21T18:22:44.340Z,9.40
2023-03-21T18:25:17.188Z,9.42
2023-03-21T18:28:09.594Z,9.38
2023-03-21T18:31:00.395Z,9.35
2023-03-21T18:33:50.226Z,9.32
2023-03-21T18:36:25.624Z,9.27
2023-03-21T18:38:58.853Z,9.24
2023-03-21T18:41:50.234Z,9.23
2023-03-21T18:44:24.270Z,9.19
2023-03-21T18:46:56.167Z,9.13
2023-03-21T18:52:28.707Z,9.06
2023-03-21T18:55:05.278Z,9.04
2023-03-21T18:57:38.495Z,9.02
2023-03-21T19:00:22.122Z,9.06
2023-03-21T19:03:18.893Z,9.03
2023-03-21T19:06:14.218Z,9.02
2023-03-21T19:08:46.414Z,9.05
2023-03-21T19:11:26.110Z,9.06
2023-03-21T19:13:55.969Z,9.03
2023-03-21T19:16:31.086Z,8.97
2023-03-21T19:19:19.454Z,8.89
2023-03-21T19:21:54.752Z,8.87
2023-03-21T19:24:32.876Z,8.93
2023-03-21T19:27:13.291Z,8.99
2023-03-21T19:30:14.432Z,9.01
2023-03-21T19:32:49.909Z,9.02
2023-03-21T19:35:32.164Z,9.02
2023-03-21T19:38:05.265Z,9.02
2023-03-21T19:40:36.772Z,9.02
2023-03-21T19:43:32.411Z,9.01
2023-03-21T19:46:04.097Z,9.01
2023-03-21T19:48:38.144Z,9.02
2023-03-21T19:51:27.771Z,9.02
2023-03-21T19:54:00.065Z,9.01
2023-03-21T19:56:31.920Z,9.01
2023-03-21T19:59:13.300Z,9.02
2023-03-21T20:01:44.085Z,9.06
2023-03-21T20:04:17.919Z,9.05
2023-03-21T20:06:54.450Z,9.01
2023-03-21T20:09:50.734Z,8.95
2023-03-21T20:12:30.873Z,8.89
2023-03-21T20:15:16.409Z,8.90
2023-03-21T20:17:49.303Z,8.86
2023-03-21T20:20:30.420Z,8.81
2023-03-21T20:23:07.866Z,8.79
2023-03-21T20:25:45.063Z,8.78
2023-03-21T20:28:25.527Z,8.75
2023-03-21T20:31:00.764Z,8.71
2023-03-21T20:33:32.819Z,8.70
2023-03-21T20:36:37.785Z,8.70
2023-03-21T20:38:58.344Z,8.70
2023-03-21T20:41:30.571Z,8.71
2023-03-21T20:47:00.121Z,8.78
2023-03-21T20:49:35.163Z,8.87
2023-03-21T20:55:09.327Z,9.03
2023-03-21T20:57:40.789Z,9.09
2023-03-21T21:00:22.483Z,9.18
2023-03-21T21:02:53.323Z,9.32
2023-03-21T21:05:30.564Z,9.42
2023-03-21T21:08:06.292Z,9.51
2023-03-21T21:11:02.737Z,9.58
2023-03-21T21:13:31.781Z,9.61
2023-03-21T21:16:07.039Z,9.66
2023-03-21T21:18:58.073Z,9.72
2023-03-21T21:21:33.236Z,9.74
2023-03-21T21:24:07.412Z,9.72
2023-03-21T21:26:49.911Z,9.75
2023-03-21T21:29:31.673Z,9.73
2023-03-21T21:32:12.617Z,9.70
2023-03-21T21:34:47.974Z,9.69
2023-03-21T21:37:22.658Z,9.65
2023-03-21T21:39:59.025Z,9.62
2023-03-21T21:42:50.312Z,9.57
2023-03-21T21:45:26.560Z,9.47
2023-03-21T21:48:00.264Z,9.35
2023-03-21T21:50:31.266Z,9.23
2023-03-21T21:53:07.328Z,9.09
2023-03-21T21:55:38.918Z,8.96
2023-03-21T21:58:14.470Z,8.82
2023-03-21T22:00:45.918Z,8.74
2023-03-21T22:03:25.866Z,8.69
2023-03-21T22:06:04.703Z,8.68
2023-03-21T22:08:47.936Z,8.66
2023-03-21T22:11:19.607Z,8.64
2023-03-21T22:13:52.588Z,8.60
2023-03-21T22:16:34.482Z,8.58
2023-03-21T22:19:05.328Z,8.55
2023-03-21T22:21:46.161Z,8.54
2023-03-21T22:24:17.178Z,8.54
2023-03-21T22:27:02.026Z,8.50
2023-03-21T22:29:32.760Z,8.49
2023-03-21T22:32:03.438Z,8.48
2023-03-21T22:34:34.119Z,8.46
2023-03-21T22:37:04.912Z,8.45
2023-03-21T22:39:46.695Z,8.45
2023-03-21T22:42:29.230Z,8.46
2023-03-21T22:44:58.353Z,8.47
2023-03-21T22:47:40.010Z,8.48
2023-03-21T22:50:31.141Z,8.49
2023-03-21T22:53:22.046Z,8.49
2023-03-21T22:55:53.205Z,8.51
2023-03-21T22:58:32.021Z,8.51
2023-03-21T23:01:05.932Z,8.50
2023-03-21T23:03:37.104Z,8.50
2023-03-21T23:06:10.938Z,8.52
2023-03-21T23:08:43.854Z,8.55
2023-03-21T23:11:34.801Z,8.61
2023-03-21T23:14:15.310Z,8.64
2023-03-21T23:16:45.965Z,8.68
2023-03-21T23:19:25.471Z,8.70
2023-03-21T23:22:16.264Z,8.69
2023-03-21T23:24:55.868Z,8.68
2023-03-21T23:27:39.699Z,8.67
2023-03-21T23:30:11.683Z,8.67
2023-03-21T23:33:02.453Z,8.68
2023-03-21T23:35:38.349Z,8.68
2023-03-21T23:38:29.231Z,8.71
2023-03-21T23:41:02.981Z,8.73
2023-03-21T23:43:34.977Z,8.74
2023-03-21T23:46:06.706Z,8.75
2023-03-21T23:48:37.597Z,8.75
2023-03-21T23:51:12.950Z,8.74
2023-03-21T23:54:03.985Z,8.73
2023-03-21T23:56:54.875Z,8.72
2023-03-21T23:59:34.300Z,8.72
